Time;durP1;ratioP1;P1;durP2;ratioP2;P2;SDS_P1;SDS_P2;PMS_P1;PMS_P2;Temp;Humidity;BMP_temperature;BMP_pressure;BME280_temperature;BME280_humidity;BME280_pressure;Samples;Min_cycle;Max_cycle;Signal;HPM_P1;HPM_P2
2023/07/09 00:02:18;;;;;;;4.05;3.63;;;22.50;99.90;;;;;;5067371;28;20327;-75
2023/07/09 00:04:47;;;;;;;4.95;3.53;;;22.50;99.90;;;;;;5054738;28;20200;-75
2023/07/09 00:07:19;;;;;;;6.70;3.78;;;22.50;99.90;;;;;;5060764;28;20244;-75
2023/07/09 00:09:47;;;;;;;5.78;3.70;;;22.50;99.90;;;;;;5064744;28;20232;-75
2023/07/09 00:12:15;;;;;;;7.10;3.75;;;22.50;99.90;;;;;;5052067;28;20228;-75
2023/07/09 00:14:43;;;;;;;7.63;3.53;;;22.40;99.90;;;;;;5055587;28;20276;-75
2023/07/09 00:17:11;;;;;;;6.10;3.53;;;22.40;99.90;;;;;;5061040;28;20233;-75
2023/07/09 00:19:39;;;;;;;5.28;3.70;;;22.30;99.90;;;;;;5063469;28;20224;-75
2023/07/09 00:22:16;;;;;;;6.32;3.55;;;22.30;99.90;;;;;;5053470;28;20673;-75
2023/07/09 00:24:45;;;;;;;8.90;3.75;;;22.30;99.90;;;;;;5063817;28;20233;-75
2023/07/09 00:27:14;;;;;;;4.60;3.38;;;22.30;99.90;;;;;;5059598;28;20271;-75
2023/07/09 00:29:42;;;;;;;4.70;3.20;;;22.30;99.90;;;;;;5056692;28;20270;-75
2023/07/09 00:32:15;;;;;;;8.95;3.88;;;22.20;99.90;;;;;;5066039;28;20252;-75
2023/07/09 00:34:48;;;;;;;6.85;3.53;;;22.20;99.90;;;;;;5054671;28;20193;-75
2023/07/09 00:37:17;;;;;;;6.82;3.58;;;22.20;99.90;;;;;;5059730;28;20228;-75
2023/07/09 00:39:45;;;;;;;7.30;4.25;;;22.20;99.90;;;;;;5063900;28;20262;-75
2023/07/09 00:42:14;;;;;;;7.80;3.92;;;22.20;99.90;;;;;;5053260;28;20571;-75
2023/07/09 00:44:44;;;;;;;12.18;4.20;;;22.10;99.90;;;;;;5063623;28;20236;-75
2023/07/09 00:47:31;;;;;;;7.80;4.40;;;22.10;99.90;;;;;;5049800;28;20205;-75
2023/07/09 00:50:10;;;;;;;8.63;4.53;;;22.00;99.90;;;;;;5065370;28;20681;-75
2023/07/09 00:52:45;;;;;;;4.75;3.80;;;21.90;99.90;;;;;;5038560;28;20251;-75
2023/07/09 00:55:16;;;;;;;4.28;3.53;;;21.90;99.90;;;;;;5059681;28;20246;-75
2023/07/09 00:57:44;;;;;;;8.68;3.55;;;21.90;99.90;;;;;;5062999;28;20233;-75
2023/07/09 01:00:14;;;;;;;7.47;4.00;;;21.90;99.90;;;;;;5052912;28;20262;-75
2023/07/09 01:02:45;;;;;;;6.75;4.30;;;21.90;99.90;;;;;;5063868;28;20738;-75
2023/07/09 01:05:13;;;;;;;4.80;3.65;;;21.90;99.90;;;;;;5058063;28;20596;-75
2023/07/09 01:07:45;;;;;;;6.43;3.67;;;21.90;99.90;;;;;;5055673;28;20591;-75
2023/07/09 01:10:13;;;;;;;7.55;4.43;;;21.90;99.90;;;;;;5065978;28;20193;-75
2023/07/09 01:12:41;;;;;;;6.60;3.72;;;21.90;99.90;;;;;;5054638;28;20267;-75
2023/07/09 01:15:11;;;;;;;7.72;4.32;;;21.80;99.90;;;;;;5060364;28;20204;-75
2023/07/09 01:17:39;;;;;;;5.88;4.00;;;21.70;99.90;;;;;;5061826;28;20224;-75
2023/07/09 01:20:09;;;;;;;9.18;4.25;;;21.70;99.90;;;;;;5051985;28;20205;-75
2023/07/09 01:22:39;;;;;;;5.35;3.92;;;21.70;99.90;;;;;;5064661;28;20253;-75
2023/07/09 01:25:09;;;;;;;9.10;3.60;;;21.60;99.90;;;;;;5057117;28;20242;-75
2023/07/09 01:27:39;;;;;;;8.68;4.30;;;21.60;99.90;;;;;;5056360;28;20228;-75
2023/07/09 01:30:10;;;;;;;4.15;3.83;;;21.40;99.90;;;;;;5065355;28;20662;-75
2023/07/09 01:32:38;;;;;;;7.30;4.03;;;21.30;99.90;;;;;;5050764;28;20295;-75
2023/07/09 01:35:07;;;;;;;10.48;4.30;;;21.20;99.90;;;;;;5059681;28;20193;-75
2023/07/09 01:37:36;;;;;;;9.63;4.20;;;21.20;99.90;;;;;;5061125;28;20236;-76
2023/07/09 01:40:06;;;;;;;7.07;3.70;;;21.20;99.90;;;;;;5052247;28;20247;-75
2023/07/09 01:42:55;;;;;;;6.55;3.97;;;21.20;99.90;;;;;;5041432;28;20615;-75
2023/07/09 01:45:23;;;;;;;4.50;4.07;;;21.10;99.90;;;;;;5056579;28;20303;-75
2023/07/09 01:47:53;;;;;;;4.07;3.75;;;21.10;99.90;;;;;;5047711;28;20539;-75
2023/07/09 01:50:24;;;;;;;5.90;3.92;;;21.00;99.90;;;;;;5063691;28;20236;-75
2023/07/09 01:52:53;;;;;;;9.43;4.43;;;21.00;99.90;;;;;;5054120;28;20449;-75
2023/07/09 01:55:22;;;;;;;7.95;4.72;;;20.90;99.90;;;;;;5056670;28;21041;-75
2023/07/09 01:57:51;;;;;;;6.30;4.10;;;20.90;99.90;;;;;;5062388;28;20311;-75
2023/07/09 02:00:19;;;;;;;8.85;4.50;;;20.90;99.90;;;;;;5051096;28;20662;-75
2023/07/09 02:02:47;;;;;;;4.38;3.97;;;20.80;99.90;;;;;;5070338;28;20236;-75
2023/07/09 02:05:16;;;;;;;15.20;4.50;;;20.80;99.90;;;;;;5059481;28;20201;-75
2023/07/09 02:07:44;;;;;;;7.47;4.40;;;20.80;99.90;;;;;;5064286;28;20564;-75
2023/07/09 02:10:13;;;;;;;6.18;3.78;;;20.70;99.90;;;;;;5053241;28;20205;-75
2023/07/09 02:12:42;;;;;;;10.80;4.72;;;20.60;99.90;;;;;;5064368;28;20214;-75
2023/07/09 02:15:11;;;;;;;4.80;4.10;;;20.50;99.90;;;;;;5058106;28;20236;-75
2023/07/09 02:17:39;;;;;;;8.43;3.83;;;20.50;99.90;;;;;;5057028;28;20311;-75
2023/07/09 02:20:07;;;;;;;6.10;4.07;;;20.50;99.90;;;;;;5066172;28;20250;-75
2023/07/09 02:22:35;;;;;;;5.20;3.90;;;20.50;99.90;;;;;;5053882;28;20303;-75
2023/07/09 02:25:03;;;;;;;6.60;4.30;;;20.40;99.90;;;;;;5061205;28;20247;-75
2023/07/09 02:27:31;;;;;;;4.97;4.00;;;20.40;99.90;;;;;;5062108;28;20229;-75
2023/07/09 02:30:00;;;;;;;6.03;4.13;;;20.40;99.90;;;;;;5057569;28;20235;-75
2023/07/09 02:32:29;;;;;;;5.03;4.40;;;20.30;99.90;;;;;;5069849;28;20217;-75
2023/07/09 02:34:56;;;;;;;6.95;4.00;;;20.30;99.90;;;;;;5059413;28;20215;-75
2023/07/09 02:37:25;;;;;;;6.80;4.47;;;20.20;99.90;;;;;;5025236;28;1051083;-75
2023/07/09 02:39:54;;;;;;;4.88;3.78;;;20.30;99.90;;;;;;5069416;28;20291;-75
2023/07/09 02:42:23;;;;;;;5.57;4.05;;;20.20;99.90;;;;;;5055278;28;20820;-75
2023/07/09 02:44:51;;;;;;;9.27;3.63;;;20.20;99.90;;;;;;5053722;28;20666;-75
2023/07/09 02:47:20;;;;;;;5.40;3.80;;;20.20;99.90;;;;;;5054754;28;20269;-75
2023/07/09 02:49:48;;;;;;;3.53;3.25;;;20.10;99.90;;;;;;5054672;28;20221;-75
2023/07/09 02:52:16;;;;;;;4.57;3.63;;;20.10;99.90;;;;;;5054629;28;20256;-75
2023/07/09 02:54:44;;;;;;;4.82;3.60;;;20.10;99.90;;;;;;5053972;28;20198;-75
2023/07/09 02:57:13;;;;;;;7.20;4.03;;;20.10;99.90;;;;;;5063874;28;20220;-75
2023/07/09 02:59:41;;;;;;;4.47;4.07;;;20.10;99.90;;;;;;5074642;28;20247;-75
2023/07/09 03:02:09;;;;;;;5.05;3.75;;;20.10;99.90;;;;;;5072715;28;20267;-75
2023/07/09 03:04:39;;;;;;;6.97;3.90;;;20.10;99.90;;;;;;5051548;28;20219;-75
2023/07/09 03:07:07;;;;;;;6.07;3.88;;;20.10;99.90;;;;;;5052157;28;20209;-75
2023/07/09 03:09:35;;;;;;;7.55;3.95;;;20.10;99.90;;;;;;5051302;28;20186;-77
2023/07/09 03:12:03;;;;;;;4.90;3.30;;;20.10;99.90;;;;;;5052242;28;20294;-77
2023/07/09 03:14:30;;;;;;;5.38;3.22;;;20.00;99.90;;;;;;5051612;28;20272;-77
2023/07/09 03:16:58;;;;;;;5.13;3.38;;;20.00;99.90;;;;;;5051707;28;20288;-77
2023/07/09 03:19:26;;;;;;;6.53;3.83;;;20.00;99.90;;;;;;5051999;28;20185;-77
2023/07/09 03:21:56;;;;;;;7.95;3.63;;;20.00;99.90;;;;;;5051729;28;20287;-77
2023/07/09 03:24:24;;;;;;;6.07;4.07;;;20.00;99.90;;;;;;5052052;28;20284;-77
2023/07/09 03:26:51;;;;;;;5.68;3.60;;;19.90;99.90;;;;;;5051222;28;20272;-77
2023/07/09 03:29:19;;;;;;;10.70;3.97;;;19.90;99.90;;;;;;5051312;28;20285;-77
2023/07/09 03:31:49;;;;;;;8.88;4.10;;;19.90;99.90;;;;;;5051633;28;20256;-77
2023/07/09 03:34:17;;;;;;;4.30;3.90;;;19.90;99.90;;;;;;5051718;28;20194;-77
2023/07/09 03:36:45;;;;;;;6.13;3.88;;;19.80;99.90;;;;;;5050740;28;20244;-77
2023/07/09 03:39:14;;;;;;;7.60;4.35;;;19.80;99.90;;;;;;5059654;28;20225;-77
2023/07/09 03:41:42;;;;;;;7.75;4.40;;;19.80;99.90;;;;;;5071488;28;20258;-77
2023/07/09 03:44:10;;;;;;;7.43;4.32;;;19.70;99.90;;;;;;5071451;28;20585;-77
2023/07/09 03:46:38;;;;;;;6.00;3.92;;;19.60;99.90;;;;;;5066157;28;20252;-77
2023/07/09 03:49:06;;;;;;;9.93;4.22;;;19.60;99.90;;;;;;5051347;28;20186;-77
2023/07/09 03:51:34;;;;;;;6.20;4.07;;;19.60;99.90;;;;;;5050946;28;20713;-82
2023/07/09 03:54:02;;;;;;;6.72;4.13;;;19.60;99.90;;;;;;5051054;28;20190;-77
2023/07/09 03:56:31;;;;;;;5.35;3.67;;;19.60;99.90;;;;;;5030796;28;20226;-77
2023/07/09 03:58:59;;;;;;;7.10;4.50;;;19.60;99.90;;;;;;5030640;28;20781;-77
2023/07/09 04:01:27;;;;;;;6.53;4.30;;;19.60;99.90;;;;;;5030936;28;20195;-76
2023/07/09 04:03:55;;;;;;;7.43;4.25;;;19.60;99.90;;;;;;5030669;28;20254;-78
2023/07/09 04:06:23;;;;;;;10.02;4.60;;;19.60;99.90;;;;;;5030222;28;20197;-77
2023/07/09 04:08:51;;;;;;;5.22;3.60;;;19.60;99.90;;;;;;5030983;28;20187;-77
2023/07/09 04:11:19;;;;;;;5.82;3.85;;;19.70;99.90;;;;;;5030948;28;20249;-77
2023/07/09 04:13:48;;;;;;;5.78;4.00;;;19.70;99.90;;;;;;5030791;28;21124;-77
2023/07/09 04:16:17;;;;;;;8.85;4.40;;;19.70;99.90;;;;;;5030746;28;20292;-77
2023/07/09 04:18:45;;;;;;;5.80;4.40;;;19.80;99.90;;;;;;5031046;28;20580;-77
2023/07/09 04:21:13;;;;;;;7.85;4.45;;;19.80;99.90;;;;;;5030996;28;20237;-77
2023/07/09 04:23:41;;;;;;;8.32;4.93;;;19.80;99.90;;;;;;5030815;28;20270;-77
2023/07/09 04:26:10;;;;;;;4.88;3.92;;;19.90;99.90;;;;;;5030057;28;20226;-77
2023/07/09 04:28:38;;;;;;;9.13;4.15;;;19.90;99.90;;;;;;5030642;28;20241;-77
2023/07/09 04:31:07;;;;;;;5.55;4.47;;;19.90;99.90;;;;;;5030608;28;20210;-77
2023/07/09 04:33:36;;;;;;;7.90;4.15;;;19.90;99.90;;;;;;5030129;28;20655;-77
2023/07/09 04:36:06;;;;;;;10.05;4.88;;;20.00;99.90;;;;;;5029539;28;20244;-77
2023/07/09 04:38:34;;;;;;;7.13;4.20;;;20.00;99.90;;;;;;5030424;28;20299;-77
2023/07/09 04:41:02;;;;;;;6.97;4.55;;;20.10;99.90;;;;;;5030347;28;20209;-77
2023/07/09 04:43:31;;;;;;;8.98;4.35;;;20.10;99.90;;;;;;5053722;28;20224;-77
2023/07/09 04:45:59;;;;;;;7.68;4.35;;;20.10;99.90;;;;;;5069918;28;20251;-77
2023/07/09 04:48:29;;;;;;;7.50;4.55;;;20.20;99.90;;;;;;5050465;28;20267;-77
2023/07/09 04:50:59;;;;;;;6.60;4.32;;;20.20;99.90;;;;;;5050059;28;20276;-77
2023/07/09 04:53:27;;;;;;;6.60;4.35;;;20.20;99.90;;;;;;5050434;28;20225;-77
2023/07/09 04:55:55;;;;;;;7.15;4.38;;;20.20;99.90;;;;;;5048790;28;20198;-77
2023/07/09 04:58:23;;;;;;;5.03;4.28;;;20.30;99.90;;;;;;5050067;28;20213;-77
2023/07/09 05:00:51;;;;;;;8.88;4.65;;;20.30;99.90;;;;;;5050280;28;20331;-77
2023/07/09 05:03:20;;;;;;;6.45;4.30;;;20.30;99.90;;;;;;5049858;28;20264;-77
2023/07/09 05:05:49;;;;;;;7.95;4.13;;;20.40;99.90;;;;;;5049030;28;20190;-77
2023/07/09 05:08:17;;;;;;;6.95;4.03;;;20.40;99.90;;;;;;5049713;28;20208;-77
2023/07/09 05:10:46;;;;;;;5.53;4.07;;;20.40;99.90;;;;;;5049538;28;20610;-77
2023/07/09 05:13:14;;;;;;;5.82;3.97;;;20.40;99.90;;;;;;5058955;28;20717;-77
2023/07/09 05:15:42;;;;;;;6.03;4.57;;;20.40;99.90;;;;;;5069543;28;20221;-77
2023/07/09 05:18:10;;;;;;;6.43;4.13;;;20.40;99.90;;;;;;5052937;28;20198;-77
2023/07/09 05:20:38;;;;;;;5.55;4.03;;;20.50;99.90;;;;;;5059114;28;20293;-77
2023/07/09 05:23:08;;;;;;;9.02;4.63;;;20.60;99.90;;;;;;5049144;28;21098;-77
2023/07/09 05:25:36;;;;;;;5.72;4.43;;;20.60;99.90;;;;;;5052972;28;20267;-77
2023/07/09 05:28:04;;;;;;;4.85;4.32;;;20.70;99.90;;;;;;5049467;28;20240;-77
2023/07/09 05:30:32;;;;;;;8.25;4.93;;;20.80;99.90;;;;;;5056096;28;20224;-77
2023/07/09 05:33:00;;;;;;;6.93;5.15;;;20.80;99.90;;;;;;5069054;28;20320;-77
2023/07/09 05:35:28;;;;;;;9.43;5.65;;;20.90;99.90;;;;;;5068645;28;20188;-77
2023/07/09 05:37:56;;;;;;;7.43;4.95;;;21.00;99.90;;;;;;5068884;28;20267;-77
2023/07/09 05:40:25;;;;;;;7.38;5.35;;;21.10;99.90;;;;;;5069168;28;20240;-77
2023/07/09 05:42:53;;;;;;;6.45;4.63;;;21.20;99.90;;;;;;5069670;28;20220;-76
2023/07/09 05:45:21;;;;;;;10.43;5.40;;;21.30;99.90;;;;;;5068860;28;20200;-78
2023/07/09 05:47:49;;;;;;;14.13;4.68;;;21.40;99.90;;;;;;5070403;28;20241;-77
2023/07/09 05:50:17;;;;;;;9.43;4.97;;;21.40;99.90;;;;;;5070368;28;20205;-78
2023/07/09 05:52:45;;;;;;;6.50;4.50;;;21.50;99.90;;;;;;5068834;28;20698;-78
2023/07/09 05:55:13;;;;;;;6.88;5.13;;;21.50;99.90;;;;;;5058978;28;20229;-78
2023/07/09 05:57:42;;;;;;;12.77;5.25;;;21.60;99.90;;;;;;5063498;28;20192;-78
2023/07/09 06:00:12;;;;;;;7.82;5.28;;;21.70;99.90;;;;;;5052401;28;20308;-72
2023/07/09 06:02:40;;;;;;;11.55;5.53;;;21.70;99.90;;;;;;5063933;28;20217;-72
2023/07/09 06:05:10;;;;;;;8.80;5.50;;;21.80;99.90;;;;;;5060233;28;20211;-72
2023/07/09 06:07:38;;;;;;;6.40;4.93;;;21.80;99.90;;;;;;5059091;28;20295;-72
2023/07/09 06:10:07;;;;;;;12.02;6.20;;;21.90;99.90;;;;;;5069146;28;20215;-72
2023/07/09 06:12:35;;;;;;;7.57;5.45;;;22.00;99.90;;;;;;5056544;28;20627;-72
2023/07/09 06:15:06;;;;;;;11.20;5.53;;;22.10;99.90;;;;;;5063635;28;20243;-71
2023/07/09 06:17:33;;;;;;;9.10;5.65;;;22.10;99.90;;;;;;5064607;28;20246;-72
2023/07/09 06:20:01;;;;;;;9.40;5.50;;;22.20;99.90;;;;;;5055793;28;20572;-71
2023/07/09 06:22:29;;;;;;;10.13;5.43;;;22.30;99.90;;;;;;5039187;28;20281;-71
2023/07/09 06:24:57;;;;;;;6.25;5.38;;;22.30;99.90;;;;;;5064472;28;20205;-71
2023/07/09 06:27:25;;;;;;;10.18;5.22;;;22.40;99.90;;;;;;5063293;28;20716;-72
2023/07/09 06:29:53;;;;;;;6.85;5.32;;;22.50;99.90;;;;;;5057287;28;20284;-72
2023/07/09 06:32:22;;;;;;;8.63;5.65;;;22.50;99.90;;;;;;5068010;28;20331;-72
2023/07/09 06:34:50;;;;;;;8.63;5.38;;;22.60;99.90;;;;;;5057733;28;20236;-72
2023/07/09 06:37:18;;;;;;;5.45;4.93;;;22.70;99.90;;;;;;5061688;28;20206;-74
2023/07/09 06:39:46;;;;;;;7.30;4.80;;;22.80;99.90;;;;;;5065765;28;20303;-72
2023/07/09 06:42:14;;;;;;;8.40;5.00;;;22.90;99.90;;;;;;5055393;28;20263;-72
2023/07/09 06:44:42;;;;;;;6.70;4.82;;;22.90;99.90;;;;;;5065985;28;20277;-72
2023/07/09 06:47:09;;;;;;;8.55;5.10;;;23.00;99.90;;;;;;5050767;28;20206;-72
2023/07/09 06:49:39;;;;;;;8.98;5.18;;;23.10;99.90;;;;;;5053999;28;20698;-72
2023/07/09 06:52:07;;;;;;;7.90;5.13;;;23.20;99.90;;;;;;5055310;28;20252;-72
2023/07/09 06:54:35;;;;;;;8.20;4.63;;;23.20;99.90;;;;;;5066657;28;20193;-72
2023/07/09 06:57:03;;;;;;;6.20;4.60;;;23.30;99.90;;;;;;5059429;28;20599;-72
2023/07/09 06:59:31;;;;;;;7.30;4.47;;;23.40;99.90;;;;;;5059590;28;20225;-72
2023/07/09 07:01:59;;;;;;;9.30;5.15;;;23.50;99.90;;;;;;5052076;28;20256;-72
2023/07/09 07:04:27;;;;;;;10.23;5.55;;;23.60;99.90;;;;;;5067743;28;20650;-72
2023/07/09 07:06:56;;;;;;;7.43;4.88;;;23.70;99.90;;;;;;5057888;28;20719;-72
2023/07/09 07:09:24;;;;;;;7.10;5.13;;;23.80;99.90;;;;;;5060224;28;20189;-72
2023/07/09 07:11:52;;;;;;;8.10;5.03;;;23.90;99.90;;;;;;5066246;28;20784;-72
2023/07/09 07:14:20;;;;;;;8.77;5.07;;;24.00;99.90;;;;;;5054147;28;20237;-72
2023/07/09 07:16:48;;;;;;;8.50;5.60;;;24.10;99.90;;;;;;5064167;28;20557;-72
2023/07/09 07:19:16;;;;;;;9.32;5.43;;;24.10;99.90;;;;;;5061136;28;20197;-72
2023/07/09 07:21:44;;;;;;;8.27;5.57;;;24.20;99.90;;;;;;5061151;28;20627;-71
2023/07/09 07:24:13;;;;;;;8.32;5.50;;;24.30;99.90;;;;;;5050404;28;20285;-72
2023/07/09 07:26:41;;;;;;;11.18;5.00;;;24.40;99.90;;;;;;5049654;28;20292;-72
2023/07/09 07:29:09;;;;;;;10.45;5.40;;;24.50;99.90;;;;;;5059807;28;20295;-72
2023/07/09 07:31:37;;;;;;;7.75;5.72;;;24.60;99.90;;;;;;5057673;28;20221;-72
2023/07/09 07:34:05;;;;;;;10.50;6.28;;;24.60;99.90;;;;;;5066898;28;20593;-72
2023/07/09 07:36:32;;;;;;;7.95;5.03;;;24.70;99.90;;;;;;5053493;28;20228;-72
2023/07/09 07:39:06;;;;;;;8.00;5.07;;;24.80;99.90;;;;;;5061202;28;20213;-71
2023/07/09 07:41:35;;;;;;;9.40;4.93;;;24.90;99.90;;;;;;5062409;28;20256;-72
2023/07/09 07:44:03;;;;;;;6.18;4.60;;;25.00;99.90;;;;;;5053460;28;20240;-72
2023/07/09 07:46:32;;;;;;;6.00;4.85;;;25.10;99.90;;;;;;5049606;28;20217;-73
2023/07/09 07:49:00;;;;;;;6.68;4.75;;;25.20;99.90;;;;;;5057429;28;20204;-72
2023/07/09 07:51:28;;;;;;;6.75;5.18;;;25.30;99.90;;;;;;5058159;28;20221;-72
2023/07/09 07:53:57;;;;;;;14.90;5.72;;;25.40;99.90;;;;;;5065054;28;20208;-73
2023/07/09 07:56:25;;;;;;;7.88;5.53;;;25.50;99.90;;;;;;5052820;28;20235;-72
2023/07/09 07:58:55;;;;;;;8.88;5.30;;;25.60;99.90;;;;;;5063223;28;20217;-73
2023/07/09 08:01:22;;;;;;;9.73;6.30;;;25.70;99.90;;;;;;5060179;28;20252;-72
2023/07/09 08:03:51;;;;;;;11.48;6.93;;;25.90;99.90;;;;;;5055238;28;20312;-71
2023/07/09 08:06:19;;;;;;;47.60;14.05;;;26.00;99.90;;;;;;5065248;28;20561;-71
2023/07/09 08:08:47;;;;;;;20.65;6.70;;;26.10;99.90;;;;;;5055669;28;20284;-71
2023/07/09 08:11:15;;;;;;;36.60;13.15;;;26.20;99.90;;;;;;5059283;28;20201;-71
2023/07/09 08:13:43;;;;;;;9.10;5.43;;;26.30;99.90;;;;;;5063126;28;20221;-72
2023/07/09 08:16:12;;;;;;;23.52;8.23;;;26.40;99.90;;;;;;5051628;28;20288;-72
2023/07/09 08:18:40;;;;;;;14.40;6.03;;;26.60;99.90;;;;;;5064112;28;20647;-72
2023/07/09 08:21:09;;;;;;;13.25;6.25;;;26.60;99.90;;;;;;5058228;28;20224;-72
2023/07/09 08:23:38;;;;;;;56.38;16.50;;;26.80;99.90;;;;;;5056780;28;20271;-72
2023/07/09 08:26:06;;;;;;;17.83;8.60;;;26.90;99.90;;;;;;5064546;28;20239;-72
2023/07/09 08:28:35;;;;;;;9.98;6.53;;;27.00;99.90;;;;;;5053161;28;20283;-71
2023/07/09 08:31:03;;;;;;;8.02;5.97;;;27.10;99.90;;;;;;5061049;28;20227;-72
2023/07/09 08:33:33;;;;;;;7.78;5.13;;;27.20;99.90;;;;;;5061222;28;20225;-71
2023/07/09 08:36:01;;;;;;;7.65;5.30;;;27.20;99.90;;;;;;5052342;28;20222;-71
2023/07/09 08:38:29;;;;;;;10.63;5.90;;;27.40;99.90;;;;;;5065579;28;20889;-72
2023/07/09 08:40:59;;;;;;;7.45;4.95;;;27.40;99.90;;;;;;5056108;28;20256;-72
2023/07/09 08:43:44;;;;;;;7.32;5.28;;;27.40;99.90;;;;;;5057624;28;20255;-72
2023/07/09 08:46:17;;;;;;;10.35;5.75;;;27.60;99.90;;;;;;5053377;28;20262;-72
2023/07/09 08:48:48;;;;;;;8.65;5.05;;;27.80;99.90;;;;;;5063179;28;20198;-72
2023/07/09 08:51:18;;;;;;;7.15;5.22;;;27.90;99.90;;;;;;5058944;28;20291;-72
2023/07/09 08:53:49;;;;;;;8.20;5.45;;;28.10;99.90;;;;;;5055531;28;20291;-71
2023/07/09 08:56:17;;;;;;;10.35;4.85;;;28.20;99.90;;;;;;5064676;28;20387;-72
2023/07/09 08:58:45;;;;;;;9.00;6.15;;;28.30;99.90;;;;;;5055279;28;20196;-73
2023/07/09 09:01:18;;;;;;;5.72;5.22;;;28.40;99.90;;;;;;5054842;28;20268;-73
2023/07/09 09:03:50;;;;;;;8.88;5.82;;;28.50;99.90;;;;;;5054731;28;20315;-72
2023/07/09 09:06:20;;;;;;;8.88;5.88;;;28.50;99.90;;;;;;5064923;28;20646;-73
2023/07/09 09:08:59;;;;;;;9.02;5.75;;;28.60;99.90;;;;;;5054919;28;20200;-73
2023/07/09 09:11:32;;;;;;;9.00;6.05;;;28.70;99.90;;;;;;5056265;28;20255;-73
2023/07/09 09:14:03;;;;;;;9.82;6.05;;;28.90;99.90;;;;;;5065121;28;20307;-73
2023/07/09 09:16:32;;;;;;;10.25;5.47;;;29.10;99.90;;;;;;5034815;28;20296;-73
2023/07/09 09:19:02;;;;;;;10.07;5.07;;;29.10;99.90;;;;;;5059496;28;20220;-72
2023/07/09 09:21:32;;;;;;;9.85;5.20;;;29.30;99.90;;;;;;5049806;28;20304;-73
2023/07/09 09:24:14;;;;;;;7.15;5.30;;;29.50;99.90;;;;;;5048523;28;20236;-72
2023/07/09 09:26:43;;;;;;;8.85;5.18;;;29.60;99.90;;;;;;5049420;28;20228;-73
2023/07/09 09:29:12;;;;;;;11.70;5.70;;;29.70;99.90;;;;;;5059179;28;20663;-72
2023/07/09 09:31:40;;;;;;;8.80;5.10;;;29.90;99.90;;;;;;5058067;28;20197;-72
2023/07/09 09:34:18;;;;;;;12.75;5.95;;;30.00;99.90;;;;;;5049466;28;20254;-73
2023/07/09 09:36:46;;;;;;;8.63;5.20;;;30.20;99.90;;;;;;5061324;28;20273;-73
2023/07/09 09:39:13;;;;;;;9.13;4.85;;;30.30;99.90;;;;;;5047851;28;20271;-72
2023/07/09 09:41:42;;;;;;;6.30;4.88;;;30.60;99.90;;;;;;5061772;28;20225;-73
2023/07/09 09:44:18;;;;;;;8.90;5.10;;;30.70;99.90;;;;;;5051536;28;20500;-72
2023/07/09 09:46:46;;;;;;;7.97;5.28;;;30.80;99.90;;;;;;5055453;28;20243;-73
2023/07/09 09:49:15;;;;;;;7.10;4.95;;;31.00;99.90;;;;;;5058778;28;20210;-74
2023/07/09 09:51:45;;;;;;;9.85;5.35;;;31.20;99.90;;;;;;5062385;28;20231;-73
2023/07/09 09:54:18;;;;;;;8.95;4.78;;;31.50;99.90;;;;;;5051657;28;20241;-73
2023/07/09 09:56:45;;;;;;;10.48;5.32;;;31.70;99.90;;;;;;5061417;28;20194;-73
2023/07/09 09:59:17;;;;;;;7.55;4.95;;;31.90;99.90;;;;;;5057603;28;20580;-71
2023/07/09 10:01:45;;;;;;;9.27;5.40;;;31.90;99.90;;;;;;5053301;28;20213;-71
2023/07/09 10:04:17;;;;;;;6.80;5.20;;;32.00;99.90;;;;;;5064440;28;20200;-71
2023/07/09 10:06:47;;;;;;;6.28;4.93;;;32.10;99.90;;;;;;5052835;28;20622;-71
2023/07/09 10:09:24;;;;;;;6.78;5.25;;;32.20;99.90;;;;;;5058115;28;20284;-71
2023/07/09 10:11:57;;;;;;;6.60;5.32;;;32.30;99.90;;;;;;5062110;28;20635;-71
2023/07/09 10:14:31;;;;;;;5.03;4.60;;;32.40;99.90;;;;;;5051961;28;20677;-71
2023/07/09 10:17:01;;;;;;;9.88;5.18;;;32.50;99.90;;;;;;5060231;28;20677;-71
2023/07/09 10:19:36;;;;;;;5.70;4.57;;;32.70;99.90;;;;;;5059649;28;20236;-71
2023/07/09 10:22:06;;;;;;;7.28;5.20;;;32.90;99.90;;;;;;5051316;28;20315;-71
2023/07/09 10:24:39;;;;;;;8.70;5.28;;;33.00;99.90;;;;;;5063334;28;20201;-71
2023/07/09 10:27:10;;;;;;;8.00;5.57;;;33.20;99.90;;;;;;5056724;28;20270;-71
2023/07/09 10:29:49;;;;;;;7.30;4.70;;;33.40;99.90;;;;;;5055102;28;20264;-71
2023/07/09 10:32:24;;;;;;;9.38;4.70;;;33.50;99.90;;;;;;5064707;28;20353;-71
2023/07/09 10:34:57;;;;;;;8.32;5.20;;;33.60;99.90;;;;;;5053993;28;20204;-70
2023/07/09 10:37:50;;;;;;;6.55;4.50;;;33.90;99.90;;;;;;5056808;28;20284;-71
2023/07/09 10:40:22;;;;;;;6.43;4.80;;;34.20;99.90;;;;;;5058246;28;20247;-72
2023/07/09 10:42:52;;;;;;;5.80;4.18;;;34.40;97.80;;;;;;5054020;28;20715;-72
2023/07/09 10:45:23;;;;;;;5.50;4.68;;;34.60;98.50;;;;;;5056958;28;20288;-72
2023/07/09 10:47:53;;;;;;;6.28;5.03;;;34.70;95.50;;;;;;5048165;28;20251;-72
2023/07/09 10:50:32;;;;;;;6.85;4.53;;;34.90;96.90;;;;;;5067548;28;20201;-72
2023/07/09 10:53:03;;;;;;;12.98;5.53;;;35.10;95.10;;;;;;5058949;28;20224;-72
2023/07/09 10:55:33;;;;;;;8.45;5.15;;;35.30;95.80;;;;;;5059098;28;20205;-72
2023/07/09 10:58:03;;;;;;;8.18;4.80;;;35.60;94.80;;;;;;5067922;28;20295;-72
2023/07/09 11:00:35;;;;;;;7.70;4.68;;;35.80;94.00;;;;;;5038970;28;20600;-72
2023/07/09 11:03:06;;;;;;;6.78;4.03;;;35.90;93.20;;;;;;5063231;28;20233;-72
2023/07/09 11:05:35;;;;;;;5.68;4.43;;;36.10;91.90;;;;;;5062785;28;20205;-71
2023/07/09 11:08:05;;;;;;;5.80;4.57;;;36.10;90.20;;;;;;5054782;28;20257;-72
2023/07/09 11:10:35;;;;;;;5.38;4.53;;;36.30;91.10;;;;;;5038840;28;20708;-72
2023/07/09 11:13:04;;;;;;;7.65;4.32;;;36.40;91.00;;;;;;5063236;28;20718;-72
2023/07/09 11:15:34;;;;;;;5.57;4.60;;;36.70;89.10;;;;;;5062839;28;20193;-72
2023/07/09 11:18:01;;;;;;;6.18;4.78;;;36.90;90.30;;;;;;5054696;28;20244;-72
2023/07/09 11:20:33;;;;;;;9.45;4.25;;;37.10;90.40;;;;;;5038424;28;20272;-72
2023/07/09 11:23:05;;;;;;;6.63;4.40;;;37.40;90.00;;;;;;5063282;28;20306;-72
2023/07/09 11:25:42;;;;;;;9.18;4.30;;;37.60;86.40;;;;;;5062555;28;20239;-72
2023/07/09 11:28:10;;;;;;;6.72;4.60;;;37.70;85.00;;;;;;5054260;28;20233;-72
2023/07/09 11:30:48;;;;;;;7.97;4.55;;;37.90;83.50;;;;;;5066282;28;20237;-72
2023/07/09 11:33:18;;;;;;;10.20;3.90;;;38.20;90.00;;;;;;5060991;28;20256;-72
2023/07/09 11:35:53;;;;;;;12.13;4.50;;;38.30;82.80;;;;;;5055602;28;20193;-72
2023/07/09 11:38:23;;;;;;;6.82;4.07;;;38.40;79.00;;;;;;5067027;28;20224;-72
2023/07/09 11:40:52;;;;;;;6.13;4.43;;;38.50;78.50;;;;;;5057305;28;20498;-71
2023/07/09 11:43:31;;;;;;;7.55;4.72;;;38.60;77.10;;;;;;5060538;28;20268;-72
2023/07/09 11:46:06;;;;;;;7.38;4.25;;;38.80;79.20;;;;;;5054895;28;20292;-72
2023/07/09 11:48:35;;;;;;;9.50;4.95;;;38.90;74.90;;;;;;5054167;28;20210;-72
2023/07/09 11:51:06;;;;;;;11.52;4.70;;;39.00;74.60;;;;;;5058661;28;20225;-72
2023/07/09 11:53:37;;;;;;;6.40;4.07;;;39.10;73.90;;;;;;5057807;28;20307;-72
2023/07/09 11:56:05;;;;;;;7.95;3.97;;;39.20;72.40;;;;;;5066398;28;20203;-72
2023/07/09 11:58:33;;;;;;;4.72;4.28;;;39.30;74.50;;;;;;5054381;28;20204;-72
2023/07/09 12:01:01;;;;;;;5.50;4.50;;;39.40;74.70;;;;;;5059489;28;20229;-72
2023/07/09 12:03:32;;;;;;;6.20;3.53;;;39.60;72.40;;;;;;5050224;28;20279;-72
2023/07/09 12:06:02;;;;;;;7.97;4.13;;;39.70;70.90;;;;;;5050800;28;20721;-72
2023/07/09 12:08:33;;;;;;;5.43;3.90;;;39.90;71.20;;;;;;5046156;28;20300;-72
2023/07/09 12:11:02;;;;;;;7.63;3.92;;;39.90;67.70;;;;;;5057930;28;20197;-72
2023/07/09 12:13:36;;;;;;;4.30;3.90;;;39.80;67.50;;;;;;5058183;28;20565;-72
2023/07/09 12:16:05;;;;;;;5.10;4.03;;;40.00;65.60;;;;;;5065174;28;20235;-72
2023/07/09 12:18:33;;;;;;;6.88;3.85;;;39.80;65.60;;;;;;5052301;28;20197;-72
2023/07/09 12:21:03;;;;;;;6.93;3.95;;;39.70;65.70;;;;;;5061761;28;20208;-72
2023/07/09 12:23:33;;;;;;;6.00;4.60;;;39.70;66.20;;;;;;5061935;28;20315;-72
2023/07/09 12:26:03;;;;;;;5.38;4.15;;;39.80;68.40;;;;;;5053380;28;20209;-72
2023/07/09 12:28:31;;;;;;;6.47;3.85;;;39.90;65.30;;;;;;5053276;28;20632;-72
2023/07/09 12:30:59;;;;;;;5.40;4.05;;;40.00;63.80;;;;;;5044988;28;20201;-72
2023/07/09 12:33:27;;;;;;;5.53;4.43;;;40.20;67.00;;;;;;5058627;28;20217;-72
2023/07/09 12:35:57;;;;;;;8.60;4.72;;;40.40;65.40;;;;;;5062109;28;20208;-73
2023/07/09 12:38:26;;;;;;;5.60;3.95;;;40.30;64.90;;;;;;5054222;28;20224;-73
2023/07/09 12:40:54;;;;;;;5.20;4.03;;;40.20;65.30;;;;;;5050038;28;20267;-73
2023/07/09 12:43:25;;;;;;;4.63;4.07;;;39.90;63.30;;;;;;5059797;28;20225;-73
2023/07/09 12:45:53;;;;;;;6.30;4.03;;;39.70;64.10;;;;;;5053509;28;20276;-72
2023/07/09 12:48:22;;;;;;;5.38;4.07;;;39.30;62.20;;;;;;5049920;28;20232;-72
2023/07/09 12:50:50;;;;;;;6.90;3.83;;;39.30;62.50;;;;;;5055544;28;20777;-73
2023/07/09 12:53:20;;;;;;;5.82;4.38;;;39.40;63.50;;;;;;5053351;28;20304;-73
2023/07/09 12:55:50;;;;;;;6.30;4.57;;;39.40;61.60;;;;;;5049352;28;20236;-73
2023/07/09 12:58:19;;;;;;;7.35;3.80;;;39.60;62.20;;;;;;5058367;28;20251;-73